sensor_id;sensor_type;location;lat;lon;timestamp;temperature;humidity
32534;DHT22;18973;48.580;8.912;2023-05-07T00:02:24;15.50;99.90
32534;DHT22;18973;48.580;8.912;2023-05-07T00:04:51;15.60;99.90
32534;DHT22;18973;48.580;8.912;2023-05-07T00:07:17;15.70;99.90
32534;DHT22;18973;48.580;8.912;2023-05-07T00:09:43;15.50;99.90
32534;DHT22;18973;48.580;8.912;2023-05-07T00:12:08;15.60;99.90
32534;DHT22;18973;48.580;8.912;2023-05-07T00:14:34;15.40;99.90
32534;DHT22;18973;48.580;8.912;2023-05-07T00:17:00;15.30;99.90
32534;DHT22;18973;48.580;8.912;2023-05-07T00:19:26;15.20;99.90
32534;DHT22;18973;48.580;8.912;2023-05-07T00:21:52;15.30;99.90
32534;DHT22;18973;48.580;8.912;2023-05-07T00:24:19;15.30;99.90
32534;DHT22;18973;48.580;8.912;2023-05-07T00:26:45;15.30;99.90
32534;DHT22;18973;48.580;8.912;2023-05-07T00:29:10;15.30;99.90
32534;DHT22;18973;48.580;8.912;2023-05-07T00:31:36;15.30;99.90
32534;DHT22;18973;48.580;8.912;2023-05-07T00:34:02;15.30;99.90
32534;DHT22;18973;48.580;8.912;2023-05-07T00:36:28;14.90;99.90
32534;DHT22;18973;48.580;8.912;2023-05-07T00:38:54;14.90;99.90
32534;DHT22;18973;48.580;8.912;2023-05-07T00:41:20;15.00;99.90
32534;DHT22;18973;48.580;8.912;2023-05-07T00:43:46;15.00;99.90
32534;DHT22;18973;48.580;8.912;2023-05-07T00:46:13;15.10;99.90
32534;DHT22;18973;48.580;8.912;2023-05-07T00:48:39;15.20;99.90
32534;DHT22;18973;48.580;8.912;2023-05-07T00:51:05;15.20;99.90
32534;DHT22;18973;48.580;8.912;2023-05-07T00:53:31;15.20;99.90
32534;DHT22;18973;48.580;8.912;2023-05-07T00:55:57;14.90;99.90
32534;DHT22;18973;48.580;8.912;2023-05-07T00:58:23;14.90;99.90
32534;DHT22;18973;48.580;8.912;2023-05-07T01:00:49;15.00;99.90
32534;DHT22;18973;48.580;8.912;2023-05-07T01:03:15;15.10;99.90
32534;DHT22;18973;48.580;8.912;2023-05-07T01:05:42;15.10;99.90
32534;DHT22;18973;48.580;8.912;2023-05-07T01:08:10;15.10;99.90
32534;DHT22;18973;48.580;8.912;2023-05-07T01:10:36;15.10;99.90
32534;DHT22;18973;48.580;8.912;2023-05-07T01:13:02;15.10;99.90
32534;DHT22;18973;48.580;8.912;2023-05-07T01:15:28;15.10;99.90
32534;DHT22;18973;48.580;8.912;2023-05-07T01:17:54;14.90;99.90
32534;DHT22;18973;48.580;8.912;2023-05-07T01:20:22;14.80;99.90
32534;DHT22;18973;48.580;8.912;2023-05-07T01:22:49;14.80;99.90
32534;DHT22;18973;48.580;8.912;2023-05-07T01:25:15;14.80;99.90
32534;DHT22;18973;48.580;8.912;2023-05-07T01:27:41;14.90;99.90
32534;DHT22;18973;48.580;8.912;2023-05-07T01:30:07;14.90;99.90
32534;DHT22;18973;48.580;8.912;2023-05-07T01:32:42;14.60;99.90
32534;DHT22;18973;48.580;8.912;2023-05-07T01:35:10;14.70;99.90
32534;DHT22;18973;48.580;8.912;2023-05-07T01:37:36;14.70;99.90
32534;DHT22;18973;48.580;8.912;2023-05-07T01:40:03;14.40;99.90
32534;DHT22;18973;48.580;8.912;2023-05-07T01:42:30;14.60;99.90
32534;DHT22;18973;48.580;8.912;2023-05-07T01:44:56;14.60;99.90
32534;DHT22;18973;48.580;8.912;2023-05-07T01:47:23;14.60;99.90
32534;DHT22;18973;48.580;8.912;2023-05-07T01:49:50;14.60;99.90
32534;DHT22;18973;48.580;8.912;2023-05-07T01:52:16;14.30;99.90
32534;DHT22;18973;48.580;8.912;2023-05-07T01:54:41;14.30;99.90
32534;DHT22;18973;48.580;8.912;2023-05-07T01:57:08;14.40;99.90
32534;DHT22;18973;48.580;8.912;2023-05-07T01:59:33;14.30;99.90
32534;DHT22;18973;48.580;8.912;2023-05-07T02:01:59;14.20;99.90
32534;DHT22;18973;48.580;8.912;2023-05-07T02:04:24;14.00;99.90
32534;DHT22;18973;48.580;8.912;2023-05-07T02:06:50;14.10;99.90
32534;DHT22;18973;48.580;8.912;2023-05-07T02:09:16;14.20;99.90
32534;DHT22;18973;48.580;8.912;2023-05-07T02:11:41;14.30;99.90
32534;DHT22;18973;48.580;8.912;2023-05-07T02:14:07;14.20;99.90
32534;DHT22;18973;48.580;8.912;2023-05-07T02:16:33;14.20;99.90
32534;DHT22;18973;48.580;8.912;2023-05-07T02:18:58;14.00;99.90
32534;DHT22;18973;48.580;8.912;2023-05-07T02:21:25;14.00;99.90
32534;DHT22;18973;48.580;8.912;2023-05-07T02:23:50;14.10;99.90
32534;DHT22;18973;48.580;8.912;2023-05-07T02:26:16;14.20;99.90
32534;DHT22;18973;48.580;8.912;2023-05-07T02:28:42;14.00;99.90
32534;DHT22;18973;48.580;8.912;2023-05-07T02:31:07;13.70;99.90
32534;DHT22;18973;48.580;8.912;2023-05-07T02:33:33;13.80;99.90
32534;DHT22;18973;48.580;8.912;2023-05-07T02:36:07;13.90;99.90
32534;DHT22;18973;48.580;8.912;2023-05-07T02:38:34;13.90;99.90
32534;DHT22;18973;48.580;8.912;2023-05-07T02:40:59;14.00;99.90
32534;DHT22;18973;48.580;8.912;2023-05-07T02:43:25;14.00;99.90
32534;DHT22;18973;48.580;8.912;2023-05-07T02:46:03;13.90;99.90
32534;DHT22;18973;48.580;8.912;2023-05-07T02:48:29;13.90;99.90
32534;DHT22;18973;48.580;8.912;2023-05-07T02:50:55;13.90;99.90
32534;DHT22;18973;48.580;8.912;2023-05-07T02:53:20;13.70;99.90
32534;DHT22;18973;48.580;8.912;2023-05-07T02:55:46;13.80;99.90
32534;DHT22;18973;48.580;8.912;2023-05-07T02:58:12;13.50;99.90
32534;DHT22;18973;48.580;8.912;2023-05-07T03:00:37;13.40;99.90
32534;DHT22;18973;48.580;8.912;2023-05-07T03:03:03;13.40;99.90
32534;DHT22;18973;48.580;8.912;2023-05-07T03:05:29;13.50;99.90
32534;DHT22;18973;48.580;8.912;2023-05-07T03:07:54;13.50;99.90
32534;DHT22;18973;48.580;8.912;2023-05-07T03:10:20;13.40;99.90
32534;DHT22;18973;48.580;8.912;2023-05-07T03:12:45;13.50;99.90
32534;DHT22;18973;48.580;8.912;2023-05-07T03:15:11;13.60;99.90
32534;DHT22;18973;48.580;8.912;2023-05-07T03:17:38;13.60;99.90
32534;DHT22;18973;48.580;8.912;2023-05-07T03:20:04;13.60;99.90
32534;DHT22;18973;48.580;8.912;2023-05-07T03:22:31;13.40;99.90
32534;DHT22;18973;48.580;8.912;2023-05-07T03:24:56;13.30;99.90
32534;DHT22;18973;48.580;8.912;2023-05-07T03:27:22;13.30;99.90
32534;DHT22;18973;48.580;8.912;2023-05-07T03:29:48;13.40;99.90
32534;DHT22;18973;48.580;8.912;2023-05-07T03:32:14;13.40;99.90
32534;DHT22;18973;48.580;8.912;2023-05-07T03:34:49;13.50;99.90
32534;DHT22;18973;48.580;8.912;2023-05-07T03:37:17;13.20;99.90
32534;DHT22;18973;48.580;8.912;2023-05-07T03:39:43;13.30;99.90
32534;DHT22;18973;48.580;8.912;2023-05-07T03:42:09;13.20;99.90
32534;DHT22;18973;48.580;8.912;2023-05-07T03:44:34;12.90;99.90
32534;DHT22;18973;48.580;8.912;2023-05-07T03:47:02;12.70;99.90
32534;DHT22;18973;48.580;8.912;2023-05-07T03:49:28;12.90;99.90
32534;DHT22;18973;48.580;8.912;2023-05-07T03:51:53;12.90;99.90
32534;DHT22;18973;48.580;8.912;2023-05-07T03:54:19;12.90;99.90
32534;DHT22;18973;48.580;8.912;2023-05-07T03:56:45;13.10;99.90
32534;DHT22;18973;48.580;8.912;2023-05-07T03:59:11;13.20;99.90
32534;DHT22;18973;48.580;8.912;2023-05-07T04:01:37;13.10;99.90
32534;DHT22;18973;48.580;8.912;2023-05-07T04:04:02;13.00;99.90
32534;DHT22;18973;48.580;8.912;2023-05-07T04:06:29;13.00;99.90
32534;DHT22;18973;48.580;8.912;2023-05-07T04:08:55;13.10;99.90
32534;DHT22;18973;48.580;8.912;2023-05-07T04:11:21;13.20;99.90
32534;DHT22;18973;48.580;8.912;2023-05-07T04:13:47;13.20;99.90
32534;DHT22;18973;48.580;8.912;2023-05-07T04:16:12;13.30;99.90
32534;DHT22;18973;48.580;8.912;2023-05-07T04:18:38;13.20;99.90
32534;DHT22;18973;48.580;8.912;2023-05-07T04:21:04;13.20;99.90
32534;DHT22;18973;48.580;8.912;2023-05-07T04:23:30;13.30;99.90
32534;DHT22;18973;48.580;8.912;2023-05-07T04:25:56;13.20;99.90
32534;DHT22;18973;48.580;8.912;2023-05-07T04:28:23;13.00;99.90
32534;DHT22;18973;48.580;8.912;2023-05-07T04:30:48;12.80;99.90
32534;DHT22;18973;48.580;8.912;2023-05-07T04:33:14;12.90;99.90
32534;DHT22;18973;48.580;8.912;2023-05-07T04:35:43;13.00;99.90
32534;DHT22;18973;48.580;8.912;2023-05-07T04:38:09;12.90;99.90
32534;DHT22;18973;48.580;8.912;2023-05-07T04:40:36;12.70;99.90
32534;DHT22;18973;48.580;8.912;2023-05-07T04:43:02;12.80;99.90
32534;DHT22;18973;48.580;8.912;2023-05-07T04:45:27;12.90;99.90
32534;DHT22;18973;48.580;8.912;2023-05-07T04:47:53;12.90;99.90
32534;DHT22;18973;48.580;8.912;2023-05-07T04:50:19;12.60;99.90
32534;DHT22;18973;48.580;8.912;2023-05-07T04:52:45;12.50;99.90
32534;DHT22;18973;48.580;8.912;2023-05-07T04:55:11;12.70;99.90
32534;DHT22;18973;48.580;8.912;2023-05-07T04:57:36;12.80;99.90
32534;DHT22;18973;48.580;8.912;2023-05-07T05:00:05;13.00;99.90
32534;DHT22;18973;48.580;8.912;2023-05-07T05:02:33;13.10;99.90
32534;DHT22;18973;48.580;8.912;2023-05-07T05:05:00;13.10;99.90
32534;DHT22;18973;48.580;8.912;2023-05-07T05:07:26;13.10;99.90
32534;DHT22;18973;48.580;8.912;2023-05-07T05:09:52;13.00;99.90
32534;DHT22;18973;48.580;8.912;2023-05-07T05:12:18;13.10;99.90
32534;DHT22;18973;48.580;8.912;2023-05-07T05:14:43;13.30;99.90
32534;DHT22;18973;48.580;8.912;2023-05-07T05:17:09;13.40;99.90
32534;DHT22;18973;48.580;8.912;2023-05-07T05:19:35;13.40;99.90
32534;DHT22;18973;48.580;8.912;2023-05-07T05:22:00;13.50;99.90
32534;DHT22;18973;48.580;8.912;2023-05-07T05:24:26;13.50;99.90
32534;DHT22;18973;48.580;8.912;2023-05-07T05:26:53;13.50;99.90
32534;DHT22;18973;48.580;8.912;2023-05-07T05:29:19;13.60;99.90
32534;DHT22;18973;48.580;8.912;2023-05-07T05:31:45;13.60;99.90
32534;DHT22;18973;48.580;8.912;2023-05-07T05:34:11;13.60;99.90
32534;DHT22;18973;48.580;8.912;2023-05-07T05:36:36;13.50;99.90
32534;DHT22;18973;48.580;8.912;2023-05-07T05:39:02;13.50;99.90
32534;DHT22;18973;48.580;8.912;2023-05-07T05:41:28;13.50;99.90
32534;DHT22;18973;48.580;8.912;2023-05-07T05:43:53;13.60;99.90
32534;DHT22;18973;48.580;8.912;2023-05-07T05:46:19;13.70;99.90
32534;DHT22;18973;48.580;8.912;2023-05-07T05:48:45;13.70;99.90
32534;DHT22;18973;48.580;8.912;2023-05-07T05:51:10;13.80;99.90
32534;DHT22;18973;48.580;8.912;2023-05-07T05:53:36;13.90;99.90
32534;DHT22;18973;48.580;8.912;2023-05-07T05:56:02;14.00;99.90
32534;DHT22;18973;48.580;8.912;2023-05-07T05:58:28;14.10;99.90
32534;DHT22;18973;48.580;8.912;2023-05-07T06:00:54;14.10;99.90
32534;DHT22;18973;48.580;8.912;2023-05-07T06:03:20;14.20;99.90
32534;DHT22;18973;48.580;8.912;2023-05-07T06:05:45;14.20;99.90
32534;DHT22;18973;48.580;8.912;2023-05-07T06:08:12;14.30;99.90
32534;DHT22;18973;48.580;8.912;2023-05-07T06:10:38;14.40;99.90
32534;DHT22;18973;48.580;8.912;2023-05-07T06:13:04;14.50;99.90
32534;DHT22;18973;48.580;8.912;2023-05-07T06:15:30;14.50;99.90
32534;DHT22;18973;48.580;8.912;2023-05-07T06:17:55;14.60;99.90
32534;DHT22;18973;48.580;8.912;2023-05-07T06:20:23;14.70;99.90
32534;DHT22;18973;48.580;8.912;2023-05-07T06:22:48;14.90;99.90
32534;DHT22;18973;48.580;8.912;2023-05-07T06:25:14;14.90;99.90
32534;DHT22;18973;48.580;8.912;2023-05-07T06:27:40;15.00;99.90
32534;DHT22;18973;48.580;8.912;2023-05-07T06:30:06;15.10;99.90
32534;DHT22;18973;48.580;8.912;2023-05-07T06:32:32;15.10;99.90
32534;DHT22;18973;48.580;8.912;2023-05-07T06:34:58;15.00;99.90
32534;DHT22;18973;48.580;8.912;2023-05-07T06:37:24;15.10;99.90
32534;DHT22;18973;48.580;8.912;2023-05-07T06:39:49;15.20;99.90
32534;DHT22;18973;48.580;8.912;2023-05-07T06:42:15;15.30;99.90
32534;DHT22;18973;48.580;8.912;2023-05-07T06:44:41;15.40;99.90
32534;DHT22;18973;48.580;8.912;2023-05-07T06:47:06;15.50;99.90
32534;DHT22;18973;48.580;8.912;2023-05-07T06:49:32;15.90;99.90
32534;DHT22;18973;48.580;8.912;2023-05-07T06:51:58;16.00;99.90
32534;DHT22;18973;48.580;8.912;2023-05-07T06:54:24;15.90;99.90
32534;DHT22;18973;48.580;8.912;2023-05-07T06:56:50;15.90;99.90
32534;DHT22;18973;48.580;8.912;2023-05-07T06:59:15;15.90;99.90
32534;DHT22;18973;48.580;8.912;2023-05-07T07:01:41;16.00;99.90
32534;DHT22;18973;48.580;8.912;2023-05-07T07:04:07;16.40;99.90
32534;DHT22;18973;48.580;8.912;2023-05-07T07:06:33;16.50;99.90
32534;DHT22;18973;48.580;8.912;2023-05-07T07:08:59;16.50;99.90
32534;DHT22;18973;48.580;8.912;2023-05-07T07:11:25;16.60;99.90
32534;DHT22;18973;48.580;8.912;2023-05-07T07:13:50;16.80;99.90
32534;DHT22;18973;48.580;8.912;2023-05-07T07:16:16;16.90;99.90
32534;DHT22;18973;48.580;8.912;2023-05-07T07:18:42;17.10;99.90
32534;DHT22;18973;48.580;8.912;2023-05-07T07:21:08;17.20;99.90
32534;DHT22;18973;48.580;8.912;2023-05-07T07:23:34;17.30;99.90
32534;DHT22;18973;48.580;8.912;2023-05-07T07:25:59;17.40;99.90
32534;DHT22;18973;48.580;8.912;2023-05-07T07:28:25;17.40;99.90
32534;DHT22;18973;48.580;8.912;2023-05-07T07:30:51;17.50;99.90
32534;DHT22;18973;48.580;8.912;2023-05-07T07:33:16;17.70;99.90
32534;DHT22;18973;48.580;8.912;2023-05-07T07:35:42;17.70;99.90
32534;DHT22;18973;48.580;8.912;2023-05-07T07:38:08;17.40;99.90
32534;DHT22;18973;48.580;8.912;2023-05-07T07:40:36;17.50;99.90
32534;DHT22;18973;48.580;8.912;2023-05-07T07:43:02;17.50;99.90
32534;DHT22;18973;48.580;8.912;2023-05-07T07:45:28;17.60;99.90
32534;DHT22;18973;48.580;8.912;2023-05-07T07:47:54;17.60;99.90
32534;DHT22;18973;48.580;8.912;2023-05-07T07:50:20;17.50;99.90
32534;DHT22;18973;48.580;8.912;2023-05-07T07:52:46;17.60;99.90
32534;DHT22;18973;48.580;8.912;2023-05-07T07:55:12;17.60;99.90
32534;DHT22;18973;48.580;8.912;2023-05-07T07:57:38;17.70;99.90
32534;DHT22;18973;48.580;8.912;2023-05-07T08:00:04;17.80;99.90
32534;DHT22;18973;48.580;8.912;2023-05-07T08:02:31;17.80;99.90
32534;DHT22;18973;48.580;8.912;2023-05-07T08:04:57;17.90;99.90
32534;DHT22;18973;48.580;8.912;2023-05-07T08:07:23;18.10;99.90
32534;DHT22;18973;48.580;8.912;2023-05-07T08:09:48;18.30;99.90
32534;DHT22;18973;48.580;8.912;2023-05-07T08:12:15;18.50;99.90
32534;DHT22;18973;48.580;8.912;2023-05-07T08:14:40;18.70;99.90
32534;DHT22;18973;48.580;8.912;2023-05-07T08:17:06;18.80;99.90
32534;DHT22;18973;48.580;8.912;2023-05-07T08:19:32;18.80;99.90
32534;DHT22;18973;48.580;8.912;2023-05-07T08:21:58;18.80;99.90
32534;DHT22;18973;48.580;8.912;2023-05-07T08:24:23;18.80;99.90
32534;DHT22;18973;48.580;8.912;2023-05-07T08:26:49;18.90;99.90
32534;DHT22;18973;48.580;8.912;2023-05-07T08:29:15;19.00;99.90
32534;DHT22;18973;48.580;8.912;2023-05-07T08:31:41;19.00;99.90
32534;DHT22;18973;48.580;8.912;2023-05-07T08:34:06;19.20;99.90
32534;DHT22;18973;48.580;8.912;2023-05-07T08:36:33;19.40;99.90
32534;DHT22;18973;48.580;8.912;2023-05-07T08:38:59;19.70;99.90
32534;DHT22;18973;48.580;8.912;2023-05-07T08:41:25;19.80;99.90
32534;DHT22;18973;48.580;8.912;2023-05-07T08:43:51;20.00;99.90
32534;DHT22;18973;48.580;8.912;2023-05-07T08:46:20;20.10;99.90
32534;DHT22;18973;48.580;8.912;2023-05-07T08:48:50;20.30;99.90
32534;DHT22;18973;48.580;8.912;2023-05-07T08:51:19;20.30;99.90
32534;DHT22;18973;48.580;8.912;2023-05-07T08:53:47;20.40;99.90
32534;DHT22;18973;48.580;8.912;2023-05-07T08:56:16;20.50;99.90
32534;DHT22;18973;48.580;8.912;2023-05-07T08:58:43;20.60;99.90
32534;DHT22;18973;48.580;8.912;2023-05-07T09:01:13;20.70;99.90
32534;DHT22;18973;48.580;8.912;2023-05-07T09:03:40;20.80;99.90
32534;DHT22;18973;48.580;8.912;2023-05-07T09:06:06;21.00;99.90
32534;DHT22;18973;48.580;8.912;2023-05-07T09:08:33;21.10;99.90
32534;DHT22;18973;48.580;8.912;2023-05-07T09:10:59;21.20;99.90
32534;DHT22;18973;48.580;8.912;2023-05-07T09:13:25;21.30;99.90
32534;DHT22;18973;48.580;8.912;2023-05-07T09:15:52;21.50;99.90
32534;DHT22;18973;48.580;8.912;2023-05-07T09:18:18;21.70;99.90
32534;DHT22;18973;48.580;8.912;2023-05-07T09:20:43;21.90;98.60
32534;DHT22;18973;48.580;8.912;2023-05-07T09:23:09;22.00;98.60
32534;DHT22;18973;48.580;8.912;2023-05-07T09:25:36;22.10;98.90
32534;DHT22;18973;48.580;8.912;2023-05-07T09:28:03;22.10;99.00
32534;DHT22;18973;48.580;8.912;2023-05-07T09:30:33;22.30;99.30
32534;DHT22;18973;48.580;8.912;2023-05-07T09:33:02;22.40;98.80
32534;DHT22;18973;48.580;8.912;2023-05-07T09:35:28;22.50;97.10
32534;DHT22;18973;48.580;8.912;2023-05-07T09:37:59;22.60;97.80
32534;DHT22;18973;48.580;8.912;2023-05-07T09:40:30;22.80;97.70
32534;DHT22;18973;48.580;8.912;2023-05-07T09:42:56;22.90;97.20
32534;DHT22;18973;48.580;8.912;2023-05-07T09:45:33;23.00;96.10
32534;DHT22;18973;48.580;8.912;2023-05-07T09:48:00;23.10;97.10
32534;DHT22;18973;48.580;8.912;2023-05-07T09:50:36;23.30;97.50
32534;DHT22;18973;48.580;8.912;2023-05-07T09:53:04;23.50;96.50
32534;DHT22;18973;48.580;8.912;2023-05-07T09:55:30;23.50;96.60
32534;DHT22;18973;48.580;8.912;2023-05-07T09:57:57;23.50;96.40
32534;DHT22;18973;48.580;8.912;2023-05-07T10:00:24;23.60;94.80
32534;DHT22;18973;48.580;8.912;2023-05-07T10:02:57;23.70;94.70
32534;DHT22;18973;48.580;8.912;2023-05-07T10:05:22;23.80;94.70
32534;DHT22;18973;48.580;8.912;2023-05-07T10:07:49;23.70;94.50
32534;DHT22;18973;48.580;8.912;2023-05-07T10:10:16;23.80;94.40
32534;DHT22;18973;48.580;8.912;2023-05-07T10:12:42;23.60;94.30
32534;DHT22;18973;48.580;8.912;2023-05-07T10:15:10;23.50;94.80
32534;DHT22;18973;48.580;8.912;2023-05-07T10:17:37;23.20;94.90
32534;DHT22;18973;48.580;8.912;2023-05-07T10:20:04;23.40;93.50
32534;DHT22;18973;48.580;8.912;2023-05-07T10:22:37;23.80;93.00
32534;DHT22;18973;48.580;8.912;2023-05-07T10:25:08;24.00;93.20
32534;DHT22;18973;48.580;8.912;2023-05-07T10:27:40;24.30;92.30
32534;DHT22;18973;48.580;8.912;2023-05-07T10:30:15;24.50;92.40
32534;DHT22;18973;48.580;8.912;2023-05-07T10:32:46;24.70;92.50
32534;DHT22;18973;48.580;8.912;2023-05-07T10:35:32;25.00;91.80
32534;DHT22;18973;48.580;8.912;2023-05-07T10:37:58;25.00;90.60
32534;DHT22;18973;48.580;8.912;2023-05-07T10:40:24;24.90;90.00
32534;DHT22;18973;48.580;8.912;2023-05-07T10:42:54;25.20;91.10
32534;DHT22;18973;48.580;8.912;2023-05-07T10:45:21;25.00;89.00
32534;DHT22;18973;48.580;8.912;2023-05-07T10:50:32;25.50;91.20
32534;DHT22;18973;48.580;8.912;2023-05-07T10:55:48;25.60;86.10
32534;DHT22;18973;48.580;8.912;2023-05-07T11:00:48;25.70;84.10
32534;DHT22;18973;48.580;8.912;2023-05-07T11:03:14;25.40;84.50
32534;DHT22;18973;48.580;8.912;2023-05-07T11:05:41;25.50;83.70
32534;DHT22;18973;48.580;8.912;2023-05-07T11:08:08;25.50;85.20
32534;DHT22;18973;48.580;8.912;2023-05-07T11:13:18;25.50;82.90
32534;DHT22;18973;48.580;8.912;2023-05-07T11:15:46;25.70;83.60
32534;DHT22;18973;48.580;8.912;2023-05-07T11:18:14;25.80;83.30
32534;DHT22;18973;48.580;8.912;2023-05-07T11:26:06;25.80;84.70
32534;DHT22;18973;48.580;8.912;2023-05-07T11:28:38;25.80;81.70
32534;DHT22;18973;48.580;8.912;2023-05-07T11:31:04;25.60;81.30
32534;DHT22;18973;48.580;8.912;2023-05-07T11:33:30;25.40;82.50
32534;DHT22;18973;48.580;8.912;2023-05-07T11:35:57;25.20;80.40
32534;DHT22;18973;48.580;8.912;2023-05-07T11:38:23;25.10;79.60
32534;DHT22;18973;48.580;8.912;2023-05-07T11:40:57;25.00;80.90
32534;DHT22;18973;48.580;8.912;2023-05-07T11:43:26;24.90;82.60
32534;DHT22;18973;48.580;8.912;2023-05-07T11:45:52;24.80;86.00
32534;DHT22;18973;48.580;8.912;2023-05-07T11:48:18;24.80;89.70
32534;DHT22;18973;48.580;8.912;2023-05-07T11:53:16;24.90;87.30
32534;DHT22;18973;48.580;8.912;2023-05-07T11:55:42;24.80;85.90
32534;DHT22;18973;48.580;8.912;2023-05-07T11:58:11;24.80;87.90
32534;DHT22;18973;48.580;8.912;2023-05-07T12:00:37;24.80;87.50
32534;DHT22;18973;48.580;8.912;2023-05-07T12:03:04;24.80;87.50
32534;DHT22;18973;48.580;8.912;2023-05-07T12:05:30;24.70;90.00
32534;DHT22;18973;48.580;8.912;2023-05-07T12:07:57;24.30;90.30
32534;DHT22;18973;48.580;8.912;2023-05-07T12:10:23;23.80;91.40
32534;DHT22;18973;48.580;8.912;2023-05-07T12:12:50;23.40;92.50
32534;DHT22;18973;48.580;8.912;2023-05-07T12:15:17;23.00;93.40
32534;DHT22;18973;48.580;8.912;2023-05-07T12:17:43;23.10;93.70
32534;DHT22;18973;48.580;8.912;2023-05-07T12:20:09;22.90;94.00
32534;DHT22;18973;48.580;8.912;2023-05-07T12:22:36;22.70;93.90
32534;DHT22;18973;48.580;8.912;2023-05-07T12:25:02;22.30;93.90
32534;DHT22;18973;48.580;8.912;2023-05-07T12:27:28;22.10;94.70
32534;DHT22;18973;48.580;8.912;2023-05-07T12:29:54;22.00;95.40
32534;DHT22;18973;48.580;8.912;2023-05-07T12:32:21;21.60;96.30
32534;DHT22;18973;48.580;8.912;2023-05-07T12:34:49;21.40;97.00
32534;DHT22;18973;48.580;8.912;2023-05-07T12:37:16;21.30;97.00
32534;DHT22;18973;48.580;8.912;2023-05-07T12:39:47;21.00;95.70
32534;DHT22;18973;48.580;8.912;2023-05-07T12:42:20;20.50;98.60
32534;DHT22;18973;48.580;8.912;2023-05-07T12:44:49;20.20;99.30
32534;DHT22;18973;48.580;8.912;2023-05-07T12:47:15;20.30;97.90
32534;DHT22;18973;48.580;8.912;2023-05-07T12:49:41;20.20;99.90
32534;DHT22;18973;48.580;8.912;2023-05-07T12:52:06;20.00;99.90
32534;DHT22;18973;48.580;8.912;2023-05-07T12:54:37;19.80;99.90
32534;DHT22;18973;48.580;8.912;2023-05-07T12:57:07;19.60;99.90
32534;DHT22;18973;48.580;8.912;2023-05-07T12:59:37;18.90;99.90
32534;DHT22;18973;48.580;8.912;2023-05-07T13:02:04;18.60;99.90
32534;DHT22;18973;48.580;8.912;2023-05-07T13:04:30;18.30;99.90
32534;DHT22;18973;48.580;8.912;2023-05-07T13:06:56;18.20;99.90
32534;DHT22;18973;48.580;8.912;2023-05-07T13:09:22;18.20;99.90
32534;DHT22;18973;48.580;8.912;2023-05-07T13:11:47;18.20;99.90
32534;DHT22;18973;48.580;8.912;2023-05-07T13:14:13;18.10;99.90
32534;DHT22;18973;48.580;8.912;2023-05-07T13:16:39;18.10;99.90
32534;DHT22;18973;48.580;8.912;2023-05-07T13:19:04;18.00;99.90
32534;DHT22;18973;48.580;8.912;2023-05-07T13:21:30;18.10;99.90
32534;DHT22;18973;48.580;8.912;2023-05-07T13:23:57;18.00;99.90
32534;DHT22;18973;48.580;8.912;2023-05-07T13:26:24;18.00;99.90
32534;DHT22;18973;48.580;8.912;2023-05-07T13:28:50;18.00;99.90
32534;DHT22;18973;48.580;8.912;2023-05-07T13:31:17;17.80;99.90
32534;DHT22;18973;48.580;8.912;2023-05-07T13:33:42;17.40;99.90
32534;DHT22;18973;48.580;8.912;2023-05-07T13:36:08;17.10;99.90
32534;DHT22;18973;48.580;8.912;2023-05-07T13:38:34;16.80;99.90
32534;DHT22;18973;48.580;8.912;2023-05-07T13:41:01;16.80;99.90
32534;DHT22;18973;48.580;8.912;2023-05-07T13:43:26;16.80;99.90
32534;DHT22;18973;48.580;8.912;2023-05-07T13:45:52;16.80;99.90
32534;DHT22;18973;48.580;8.912;2023-05-07T13:48:18;17.00;99.90
32534;DHT22;18973;48.580;8.912;2023-05-07T13:50:44;17.10;99.90
32534;DHT22;18973;48.580;8.912;2023-05-07T13:53:09;17.10;99.90
32534;DHT22;18973;48.580;8.912;2023-05-07T13:55:35;17.00;99.90
32534;DHT22;18973;48.580;8.912;2023-05-07T13:58:02;16.80;99.90
32534;DHT22;18973;48.580;8.912;2023-05-07T14:00:28;17.00;99.90
32534;DHT22;18973;48.580;8.912;2023-05-07T14:02:55;17.00;99.90
32534;DHT22;18973;48.580;8.912;2023-05-07T14:05:22;17.20;99.90
32534;DHT22;18973;48.580;8.912;2023-05-07T14:07:54;17.20;99.90
32534;DHT22;18973;48.580;8.912;2023-05-07T14:10:20;17.00;99.90
32534;DHT22;18973;48.580;8.912;2023-05-07T14:12:46;16.80;99.90
32534;DHT22;18973;48.580;8.912;2023-05-07T14:15:12;16.80;99.90
32534;DHT22;18973;48.580;8.912;2023-05-07T14:17:38;16.70;99.90
32534;DHT22;18973;48.580;8.912;2023-05-07T14:20:04;16.80;99.90
32534;DHT22;18973;48.580;8.912;2023-05-07T14:22:31;17.00;99.90
32534;DHT22;18973;48.580;8.912;2023-05-07T14:24:57;16.90;99.90
32534;DHT22;18973;48.580;8.912;2023-05-07T14:27:23;16.70;99.90
32534;DHT22;18973;48.580;8.912;2023-05-07T14:29:48;16.50;99.90
32534;DHT22;18973;48.580;8.912;2023-05-07T14:32:17;16.40;99.90
32534;DHT22;18973;48.580;8.912;2023-05-07T14:34:44;16.40;99.90
32534;DHT22;18973;48.580;8.912;2023-05-07T14:37:09;16.30;99.90
32534;DHT22;18973;48.580;8.912;2023-05-07T14:39:35;16.40;99.90
32534;DHT22;18973;48.580;8.912;2023-05-07T14:42:01;16.40;99.90
32534;DHT22;18973;48.580;8.912;2023-05-07T14:44:27;16.40;99.90
32534;DHT22;18973;48.580;8.912;2023-05-07T14:46:53;16.40;99.90
32534;DHT22;18973;48.580;8.912;2023-05-07T14:49:24;16.40;99.90
32534;DHT22;18973;48.580;8.912;2023-05-07T14:51:50;16.50;99.90
32534;DHT22;18973;48.580;8.912;2023-05-07T14:54:21;16.40;99.90
32534;DHT22;18973;48.580;8.912;2023-05-07T14:56:47;16.40;99.90
32534;DHT22;18973;48.580;8.912;2023-05-07T14:59:13;16.50;99.90
32534;DHT22;18973;48.580;8.912;2023-05-07T15:01:39;16.70;99.90
32534;DHT22;18973;48.580;8.912;2023-05-07T15:04:08;16.80;99.90
32534;DHT22;18973;48.580;8.912;2023-05-07T15:06:33;17.00;99.90
32534;DHT22;18973;48.580;8.912;2023-05-07T15:08:59;17.10;99.90
32534;DHT22;18973;48.580;8.912;2023-05-07T15:11:25;17.10;99.90
32534;DHT22;18973;48.580;8.912;2023-05-07T15:13:51;17.30;99.90
32534;DHT22;18973;48.580;8.912;2023-05-07T15:16:16;17.50;99.90
32534;DHT22;18973;48.580;8.912;2023-05-07T15:18:42;17.70;99.90
32534;DHT22;18973;48.580;8.912;2023-05-07T15:21:08;17.80;99.90
32534;DHT22;18973;48.580;8.912;2023-05-07T15:23:34;17.90;99.90
32534;DHT22;18973;48.580;8.912;2023-05-07T15:26:00;17.90;99.90
32534;DHT22;18973;48.580;8.912;2023-05-07T15:28:27;18.00;99.90
32534;DHT22;18973;48.580;8.912;2023-05-07T15:30:54;18.00;99.90
32534;DHT22;18973;48.580;8.912;2023-05-07T15:33:20;17.90;99.90
32534;DHT22;18973;48.580;8.912;2023-05-07T15:35:46;17.80;99.90
32534;DHT22;18973;48.580;8.912;2023-05-07T15:38:12;17.80;99.90
32534;DHT22;18973;48.580;8.912;2023-05-07T15:40:38;17.80;99.90
32534;DHT22;18973;48.580;8.912;2023-05-07T15:43:08;17.80;99.90
32534;DHT22;18973;48.580;8.912;2023-05-07T15:45:39;17.90;99.90